createdAt,value
2019-03-31T00:01:56.776Z,53.10
2019-03-31T00:04:27.778Z,53.50
2019-03-31T00:06:58.901Z,53.30
2019-03-31T00:09:30.051Z,53.70
2019-03-31T00:12:01.653Z,53.00
2019-03-31T00:14:33.159Z,53.00
2019-03-31T00:17:04.255Z,53.00
2019-03-31T00:19:35.855Z,52.80
2019-03-31T00:22:07.001Z,52.40
2019-03-31T00:24:38.259Z,52.00
2019-03-31T00:27:09.295Z,52.00
2019-03-31T00:29:40.338Z,52.00
2019-03-31T00:32:11.900Z,52.10
2019-03-31T00:34:43.700Z,52.00
2019-03-31T00:37:14.691Z,51.90
2019-03-31T00:39:45.831Z,51.90
2019-03-31T00:42:17.297Z,51.90
2019-03-31T00:44:48.407Z,52.00
2019-03-31T00:47:19.599Z,51.90
2019-03-31T00:49:50.784Z,51.60
2019-03-31T00:52:21.902Z,51.60
2019-03-31T00:54:53.394Z,51.50
2019-03-31T00:57:24.404Z,51.60
2019-03-31T00:59:55.530Z,51.80
2019-03-31T01:02:29.983Z,52.00
2019-03-31T01:05:01.718Z,52.80
2019-03-31T01:07:34.657Z,52.00
2019-03-31T01:10:08.490Z,52.30
2019-03-31T01:12:40.916Z,52.50
2019-03-31T01:15:16.989Z,52.70
2019-03-31T01:17:48.091Z,53.10
2019-03-31T01:20:19.226Z,53.20
2019-03-31T01:22:50.610Z,53.20
2019-03-31T01:25:22.892Z,53.30
2019-03-31T01:27:55.156Z,53.00
2019-03-31T01:30:27.240Z,52.90
2019-03-31T01:32:58.856Z,52.50
2019-03-31T01:35:29.779Z,52.50
2019-03-31T01:38:00.881Z,52.60
2019-03-31T01:40:32.045Z,52.70
2019-03-31T01:43:03.207Z,53.30
2019-03-31T01:45:34.551Z,53.60
2019-03-31T01:48:06.082Z,53.60
2019-03-31T01:50:37.244Z,53.70
2019-03-31T01:53:08.382Z,53.70
2019-03-31T01:55:39.775Z,53.80
2019-03-31T01:58:11.333Z,53.90
2019-03-31T02:00:45.426Z,54.10
2019-03-31T02:03:16.673Z,55.30
2019-03-31T02:05:47.935Z,55.40
2019-03-31T02:08:19.075Z,55.70
2019-03-31T02:10:50.484Z,55.60
2019-03-31T02:13:21.629Z,55.30
2019-03-31T02:15:52.754Z,55.40
2019-03-31T02:18:24.368Z,55.30
2019-03-31T02:20:55.516Z,54.10
2019-03-31T02:23:26.622Z,54.10
2019-03-31T02:25:58.018Z,54.90
2019-03-31T02:28:29.038Z,54.00
2019-03-31T02:31:00.745Z,54.00
2019-03-31T02:33:31.972Z,55.20
2019-03-31T02:36:03.052Z,55.50
2019-03-31T02:38:34.417Z,55.80
2019-03-31T02:41:05.745Z,55.90
2019-03-31T02:43:36.887Z,54.90
2019-03-31T02:46:08.221Z,54.90
2019-03-31T02:48:39.387Z,54.90
2019-03-31T02:51:11.007Z,55.00
2019-03-31T02:53:42.494Z,56.10
2019-03-31T02:56:15.572Z,56.20
2019-03-31T02:58:47.017Z,56.30
2019-03-31T03:01:18.985Z,56.10
2019-03-31T03:03:51.834Z,56.50
2019-03-31T03:06:24.539Z,56.50
2019-03-31T03:08:57.140Z,56.00
2019-03-31T03:11:30.185Z,56.20
2019-03-31T03:14:03.833Z,55.90
2019-03-31T03:16:34.959Z,55.90
2019-03-31T03:19:05.968Z,56.00
2019-03-31T03:21:37.323Z,55.90
2019-03-31T03:24:09.137Z,55.90
2019-03-31T03:26:40.277Z,55.90
2019-03-31T03:29:11.530Z,55.00
2019-03-31T03:31:42.953Z,55.50
2019-03-31T03:34:14.214Z,55.00
2019-03-31T03:36:45.359Z,55.50
2019-03-31T03:39:16.401Z,55.10
2019-03-31T03:41:47.953Z,55.10
2019-03-31T03:44:19.184Z,55.00
2019-03-31T03:46:54.119Z,55.10
2019-03-31T03:49:30.684Z,55.10
2019-03-31T03:52:02.228Z,55.10
2019-03-31T03:54:33.263Z,55.10
2019-03-31T03:57:04.468Z,55.00
2019-03-31T03:59:35.951Z,55.00
2019-03-31T04:02:07.435Z,55.00
2019-03-31T04:04:38.785Z,55.20
2019-03-31T04:07:10.583Z,55.60
2019-03-31T04:09:42.158Z,56.30
2019-03-31T04:12:13.725Z,56.40
2019-03-31T04:14:44.727Z,56.20
2019-03-31T04:17:15.837Z,56.90
2019-03-31T04:19:47.720Z,57.40
2019-03-31T04:22:18.767Z,57.60
2019-03-31T04:24:50.270Z,57.80
2019-03-31T04:27:21.375Z,57.90
2019-03-31T04:29:52.560Z,57.90
2019-03-31T04:32:23.564Z,58.00
2019-03-31T04:34:54.727Z,57.70
2019-03-31T04:37:25.810Z,57.50
2019-03-31T04:39:56.963Z,57.10
2019-03-31T04:42:28.223Z,56.90
2019-03-31T04:44:59.343Z,56.80
2019-03-31T04:47:30.807Z,56.70
2019-03-31T04:50:02.197Z,56.70
2019-03-31T04:52:33.295Z,56.30
2019-03-31T04:55:04.886Z,56.20
2019-03-31T04:57:36.575Z,56.30
2019-03-31T05:00:07.763Z,56.30
2019-03-31T05:02:38.878Z,56.30
2019-03-31T05:05:10.267Z,56.40
2019-03-31T05:07:42.343Z,56.30
2019-03-31T05:10:13.493Z,56.40
2019-03-31T05:12:44.544Z,56.60
2019-03-31T05:15:15.619Z,56.40
2019-03-31T05:17:46.771Z,56.50
2019-03-31T05:20:17.995Z,56.50
2019-03-31T05:22:49.037Z,56.40
2019-03-31T05:25:21.191Z,56.50
2019-03-31T05:27:53.159Z,56.30
2019-03-31T05:30:24.252Z,56.40
2019-03-31T05:32:55.631Z,57.40
2019-03-31T05:35:27.211Z,57.80
2019-03-31T05:37:58.478Z,57.90
2019-03-31T05:40:30.820Z,57.80
2019-03-31T05:43:02.508Z,57.40
2019-03-31T05:45:34.554Z,57.00
2019-03-31T05:48:05.779Z,57.00
2019-03-31T05:50:37.523Z,57.20
2019-03-31T05:53:08.951Z,57.00
2019-03-31T05:55:40.099Z,57.20
2019-03-31T05:58:11.232Z,57.30
2019-03-31T06:00:46.700Z,57.10
2019-03-31T06:03:18.223Z,57.10
2019-03-31T06:05:49.568Z,57.30
2019-03-31T06:08:21.170Z,57.20
2019-03-31T06:10:52.359Z,57.30
2019-03-31T06:13:23.492Z,57.50
2019-03-31T06:15:55.130Z,57.60
2019-03-31T06:18:26.490Z,57.60
2019-03-31T06:20:57.655Z,57.70
2019-03-31T06:23:28.890Z,57.70
2019-03-31T06:26:00.447Z,57.90
2019-03-31T06:28:32.213Z,57.90
2019-03-31T06:31:03.490Z,58.00
2019-03-31T06:33:34.594Z,58.00
2019-03-31T06:36:05.630Z,58.00
2019-03-31T06:38:36.749Z,57.90
2019-03-31T06:41:07.855Z,57.60
2019-03-31T06:43:39.014Z,57.50
2019-03-31T06:46:10.744Z,57.40
2019-03-31T06:48:42.063Z,57.40
2019-03-31T06:51:16.933Z,57.50
2019-03-31T06:53:46.502Z,57.40
2019-03-31T06:56:18.194Z,57.50
2019-03-31T06:58:49.591Z,57.70
2019-03-31T07:01:26.987Z,57.80
2019-03-31T07:04:01.554Z,57.40
2019-03-31T07:06:35.346Z,57.30
2019-03-31T07:09:07.316Z,57.40
2019-03-31T07:11:38.587Z,57.50
2019-03-31T07:14:11.518Z,57.50
2019-03-31T07:16:44.257Z,57.30
2019-03-31T07:19:19.286Z,57.10
2019-03-31T07:21:55.935Z,56.60
2019-03-31T07:24:27.098Z,56.70
2019-03-31T07:26:58.228Z,56.70
2019-03-31T07:29:29.333Z,55.90
2019-03-31T07:32:00.862Z,55.70
2019-03-31T07:34:44.766Z,55.80
2019-03-31T07:37:16.453Z,56.00
2019-03-31T07:39:47.598Z,57.10
2019-03-31T07:42:18.907Z,57.60
2019-03-31T07:44:52.042Z,57.80
2019-03-31T07:47:29.211Z,57.70
2019-03-31T07:50:02.011Z,58.20
2019-03-31T07:52:38.125Z,57.60
2019-03-31T07:55:09.938Z,58.00
2019-03-31T07:57:45.468Z,58.20
2019-03-31T08:00:19.456Z,57.90
2019-03-31T08:03:00.170Z,57.80
2019-03-31T08:05:33.458Z,57.70
2019-03-31T08:08:05.222Z,57.00
2019-03-31T08:10:36.476Z,56.40
2019-03-31T08:13:07.688Z,56.50
2019-03-31T08:15:44.884Z,56.60
2019-03-31T08:18:16.731Z,56.20
2019-03-31T08:20:52.138Z,56.30
2019-03-31T08:23:23.527Z,56.00
2019-03-31T08:25:54.674Z,55.70
2019-03-31T08:28:28.274Z,55.30
2019-03-31T08:30:59.625Z,55.30
2019-03-31T08:33:34.532Z,54.70
2019-03-31T08:36:07.640Z,54.30
2019-03-31T08:38:46.242Z,54.00
2019-03-31T08:41:19.262Z,53.80
2019-03-31T08:43:54.728Z,53.50
2019-03-31T08:46:28.096Z,52.80
2019-03-31T08:48:59.452Z,52.60
2019-03-31T08:51:30.744Z,52.00
2019-03-31T08:54:03.744Z,51.80
2019-03-31T08:56:37.704Z,51.10
2019-03-31T08:59:10.325Z,50.80
2019-03-31T09:01:43.298Z,50.70
2019-03-31T09:04:15.640Z,50.50
2019-03-31T09:06:50.981Z,50.60
2019-03-31T09:09:22.553Z,50.10
2019-03-31T09:11:54.105Z,49.90
2019-03-31T09:14:25.392Z,50.00
2019-03-31T09:16:56.505Z,50.10
2019-03-31T09:19:30.332Z,50.30
2019-03-31T09:22:01.761Z,50.10
2019-03-31T09:24:34.139Z,50.10
2019-03-31T09:27:09.549Z,49.90
2019-03-31T09:29:41.703Z,49.60
2019-03-31T09:32:19.653Z,49.40
2019-03-31T09:34:52.523Z,49.40
2019-03-31T09:37:27.640Z,48.90
2019-03-31T09:40:01.311Z,48.80
2019-03-31T09:42:35.127Z,48.80
2019-03-31T09:45:37.050Z,48.70
2019-03-31T09:48:08.899Z,48.40
2019-03-31T09:50:42.259Z,47.90
2019-03-31T09:53:16.241Z,48.00
2019-03-31T09:55:47.371Z,48.00
2019-03-31T09:58:25.294Z,47.30
2019-03-31T10:00:56.603Z,47.10
2019-03-31T10:03:31.847Z,47.30
2019-03-31T10:06:10.594Z,47.50
2019-03-31T10:08:40.235Z,48.00
2019-03-31T10:11:16.271Z,47.40
2019-03-31T10:13:49.282Z,46.90
2019-03-31T10:16:21.019Z,46.30
2019-03-31T10:18:52.753Z,45.70
2019-03-31T10:21:23.911Z,45.20
2019-03-31T10:23:54.980Z,45.70
2019-03-31T10:26:31.999Z,45.70
2019-03-31T10:29:00.709Z,44.90
2019-03-31T10:31:32.406Z,43.90
2019-03-31T10:34:04.994Z,42.50
2019-03-31T10:36:44.490Z,41.90
2019-03-31T10:39:12.601Z,40.70
2019-03-31T10:41:44.127Z,39.50
2019-03-31T10:44:23.217Z,37.80
2019-03-31T10:46:58.588Z,36.80
2019-03-31T10:49:37.035Z,35.10
2019-03-31T10:52:08.327Z,35.20
2019-03-31T10:54:44.616Z,34.50
2019-03-31T10:57:16.355Z,33.60
2019-03-31T10:59:48.610Z,33.40
2019-03-31T11:02:19.815Z,33.10
2019-03-31T11:04:52.764Z,32.90
2019-03-31T11:07:31.676Z,33.10
2019-03-31T11:10:03.012Z,31.90
2019-03-31T11:12:38.472Z,31.80
2019-03-31T11:15:10.229Z,31.90
2019-03-31T11:17:41.763Z,31.30
2019-03-31T11:20:12.994Z,30.50
2019-03-31T11:22:50.321Z,30.00
2019-03-31T11:25:25.343Z,30.10
2019-03-31T11:27:59.301Z,30.10
2019-03-31T11:30:33.302Z,28.50
2019-03-31T11:33:07.566Z,28.10
2019-03-31T11:35:39.412Z,27.90
2019-03-31T11:38:10.622Z,27.50
2019-03-31T11:40:42.215Z,26.60
2019-03-31T11:43:13.464Z,26.30
2019-03-31T11:45:45.309Z,27.30
2019-03-31T11:48:17.275Z,26.80
2019-03-31T11:50:51.393Z,26.50
2019-03-31T11:53:22.667Z,25.80
2019-03-31T11:55:53.750Z,25.60
2019-03-31T11:58:25.017Z,25.40
2019-03-31T12:00:58.501Z,25.40
2019-03-31T12:03:31.186Z,25.40
2019-03-31T12:06:05.796Z,25.30
2019-03-31T12:08:37.439Z,25.20
2019-03-31T12:11:11.336Z,24.80
2019-03-31T12:13:43.798Z,24.80
2019-03-31T12:16:15.665Z,24.20
2019-03-31T12:18:49.583Z,24.20
2019-03-31T12:21:21.569Z,23.70
2019-03-31T12:23:53.246Z,23.60
2019-03-31T12:26:26.323Z,23.30
2019-03-31T12:28:58.174Z,22.90
2019-03-31T12:31:32.179Z,22.90
2019-03-31T12:34:05.072Z,23.60
2019-03-31T12:36:41.553Z,23.50
2019-03-31T12:39:14.601Z,23.50
2019-03-31T12:41:53.382Z,23.30
2019-03-31T12:44:26.226Z,23.10
2019-03-31T12:46:59.443Z,23.10
2019-03-31T12:49:32.810Z,22.50
2019-03-31T12:54:47.777Z,22.50
2019-03-31T12:57:27.831Z,22.50
2019-03-31T13:00:15.060Z,22.30
2019-03-31T13:02:48.691Z,21.80
2019-03-31T13:05:24.522Z,21.60
2019-03-31T13:07:56.972Z,21.40
2019-03-31T13:10:29.699Z,21.30
2019-03-31T13:13:01.319Z,21.00
2019-03-31T13:15:35.162Z,21.30
2019-03-31T13:18:06.975Z,21.40
2019-03-31T13:20:44.230Z,21.60
2019-03-31T13:23:17.026Z,21.70
2019-03-31T13:25:55.539Z,22.10
2019-03-31T13:28:27.080Z,23.30
2019-03-31T13:31:03.380Z,24.70
2019-03-31T13:33:35.416Z,25.90
2019-03-31T13:36:15.411Z,27.00
2019-03-31T13:38:49.446Z,27.90
2019-03-31T13:41:20.612Z,27.90
2019-03-31T13:43:51.789Z,28.70
2019-03-31T13:46:24.123Z,29.10
2019-03-31T13:48:57.404Z,29.50
2019-03-31T13:51:28.939Z,30.00
2019-03-31T13:54:00.817Z,30.00
2019-03-31T13:56:33.016Z,30.00
2019-03-31T13:59:08.895Z,30.20
2019-03-31T14:01:47.403Z,30.50
2019-03-31T14:04:19.940Z,30.50
2019-03-31T14:06:55.957Z,30.90
2019-03-31T14:09:32.917Z,30.90
2019-03-31T14:12:05.014Z,31.00
2019-03-31T14:14:37.847Z,31.30
2019-03-31T14:17:09.499Z,30.90
2019-03-31T14:19:42.140Z,30.90
2019-03-31T14:22:13.164Z,30.90
2019-03-31T14:24:44.535Z,31.00
2019-03-31T14:27:18.531Z,30.90
2019-03-31T14:29:49.710Z,31.10
2019-03-31T14:32:31.440Z,31.30
2019-03-31T14:35:03.042Z,31.20
2019-03-31T14:37:34.211Z,31.20
2019-03-31T14:40:05.881Z,31.30
2019-03-31T14:42:42.047Z,31.30
2019-03-31T14:45:36.665Z,31.10
2019-03-31T14:48:08.145Z,31.40
2019-03-31T14:50:42.885Z,31.40
2019-03-31T14:53:16.176Z,31.20
2019-03-31T14:55:54.493Z,31.50
2019-03-31T14:58:26.750Z,31.50
2019-03-31T15:01:00.019Z,31.50
2019-03-31T15:03:31.502Z,31.70
2019-03-31T15:06:02.639Z,31.20
2019-03-31T15:08:35.380Z,31.50
2019-03-31T15:11:06.502Z,31.40
2019-03-31T15:13:37.862Z,31.80
2019-03-31T15:16:23.752Z,32.10
2019-03-31T15:18:59.328Z,32.10
2019-03-31T15:21:43.892Z,31.90
2019-03-31T15:24:13.679Z,32.10
2019-03-31T15:26:45.293Z,31.80
2019-03-31T15:29:16.408Z,31.60
2019-03-31T15:31:49.388Z,31.90
2019-03-31T15:34:21.116Z,31.70
2019-03-31T15:36:52.671Z,31.90
2019-03-31T15:42:02.197Z,32.30
2019-03-31T15:44:35.029Z,31.70
2019-03-31T15:47:07.025Z,31.70
2019-03-31T15:49:38.530Z,32.10
2019-03-31T15:52:09.639Z,31.80
2019-03-31T15:54:41.232Z,30.60
2019-03-31T15:57:12.767Z,30.40
2019-03-31T15:59:53.307Z,31.10
2019-03-31T16:02:34.349Z,31.10
2019-03-31T16:05:07.456Z,31.90
2019-03-31T16:07:41.894Z,30.50
2019-03-31T16:10:14.771Z,30.30
2019-03-31T16:12:45.307Z,31.20
2019-03-31T16:15:17.248Z,31.20
2019-03-31T16:17:48.677Z,30.30
2019-03-31T16:20:19.353Z,30.00
2019-03-31T16:22:52.187Z,29.90
2019-03-31T16:25:27.363Z,30.00
2019-03-31T16:27:58.359Z,30.10
2019-03-31T16:30:29.495Z,30.00
2019-03-31T16:33:08.211Z,30.40
2019-03-31T16:35:41.803Z,30.80
2019-03-31T16:38:18.657Z,30.80
2019-03-31T16:40:50.180Z,30.90
2019-03-31T16:43:35.847Z,31.20
2019-03-31T16:46:08.339Z,31.10
2019-03-31T16:48:40.049Z,31.70
2019-03-31T16:51:19.582Z,30.40
2019-03-31T16:53:50.740Z,30.50
2019-03-31T16:56:27.536Z,30.60
2019-03-31T16:58:58.118Z,30.60
2019-03-31T17:01:29.466Z,31.50
2019-03-31T17:04:04.002Z,31.50
2019-03-31T17:06:40.242Z,31.80
2019-03-31T17:09:12.590Z,32.00
2019-03-31T17:11:49.348Z,32.20
2019-03-31T17:14:21.921Z,32.70
2019-03-31T17:16:52.502Z,32.80
2019-03-31T17:19:23.207Z,33.00
2019-03-31T17:21:59.788Z,33.00
2019-03-31T17:24:30.031Z,33.10
2019-03-31T17:27:00.797Z,33.10
2019-03-31T17:29:31.785Z,33.10
2019-03-31T17:32:02.567Z,34.00
2019-03-31T17:34:36.843Z,33.80
2019-03-31T17:37:07.990Z,34.30
2019-03-31T17:39:39.411Z,34.50
2019-03-31T17:42:17.763Z,34.90
2019-03-31T17:44:56.585Z,34.90
2019-03-31T17:47:27.787Z,35.20
2019-03-31T17:50:02.812Z,35.50
2019-03-31T17:52:35.722Z,36.10
2019-03-31T17:55:06.729Z,36.50
2019-03-31T17:57:43.011Z,36.70
2019-03-31T18:00:18.593Z,37.00
2019-03-31T18:02:53.247Z,37.10
2019-03-31T18:05:24.370Z,36.80
2019-03-31T18:07:57.344Z,37.40
2019-03-31T18:10:28.291Z,37.30
2019-03-31T18:13:02.902Z,37.40
2019-03-31T18:15:32.671Z,37.70
2019-03-31T18:18:03.625Z,37.70
2019-03-31T18:20:38.840Z,37.90
2019-03-31T18:23:10.368Z,37.80
2019-03-31T18:25:45.372Z,38.00
2019-03-31T18:28:15.136Z,38.00
2019-03-31T18:30:46.173Z,38.20
2019-03-31T18:33:25.883Z,38.30
2019-03-31T18:35:57.005Z,38.30
2019-03-31T18:38:27.519Z,38.40
2019-03-31T18:40:58.466Z,38.50
2019-03-31T18:43:29.075Z,38.40
2019-03-31T18:46:10.438Z,38.30
2019-03-31T18:48:46.452Z,38.30
2019-03-31T18:51:16.594Z,38.60
2019-03-31T18:54:08.218Z,38.60
2019-03-31T18:56:47.412Z,38.50
2019-03-31T18:59:52.327Z,38.60
2019-03-31T19:02:36.887Z,38.40
2019-03-31T19:05:24.750Z,38.60
2019-03-31T19:08:23.557Z,38.40
2019-03-31T19:11:14.861Z,38.50
2019-03-31T19:14:14.245Z,38.70
2019-03-31T19:17:20.121Z,38.90
2019-03-31T19:20:10.148Z,39.40
2019-03-31T19:22:58.695Z,39.40
2019-03-31T19:25:52.623Z,39.50
2019-03-31T19:28:39.935Z,39.70
2019-03-31T19:31:36.098Z,39.70
2019-03-31T19:34:41.449Z,39.60
2019-03-31T19:37:29.780Z,39.40
2019-03-31T19:40:18.242Z,39.00
2019-03-31T19:43:08.451Z,39.10
2019-03-31T19:46:06.376Z,39.60
2019-03-31T19:49:18.417Z,39.80
2019-03-31T19:52:23.774Z,39.90
2019-03-31T19:55:15.415Z,40.50
2019-03-31T19:58:03.394Z,40.50
2019-03-31T20:01:05.322Z,40.70
2019-03-31T20:04:03.449Z,40.60
2019-03-31T20:06:58.712Z,40.80
2019-03-31T20:09:48.321Z,40.50
2019-03-31T20:12:40.727Z,40.30
2019-03-31T20:15:30.526Z,40.60
2019-03-31T20:18:28.870Z,40.70
2019-03-31T20:21:32.691Z,40.30
2019-03-31T20:24:30.187Z,40.00
2019-03-31T20:27:12.945Z,39.70
2019-03-31T20:30:15.719Z,39.70
2019-03-31T20:33:26.125Z,39.50
2019-03-31T20:36:13.400Z,39.60
2019-03-31T20:39:08.196Z,39.80
2019-03-31T20:42:04.615Z,39.50
2019-03-31T20:44:44.548Z,39.90
2019-03-31T20:47:14.312Z,39.50
2019-03-31T20:49:45.282Z,39.90
2019-03-31T20:52:20.368Z,39.50
2019-03-31T20:54:52.008Z,39.20
2019-03-31T20:57:28.426Z,39.20
2019-03-31T20:59:59.785Z,39.30
2019-03-31T21:02:30.366Z,39.50
2019-03-31T21:05:03.002Z,39.80
2019-03-31T21:07:33.575Z,39.50
2019-03-31T21:10:04.614Z,39.70
2019-03-31T21:12:44.074Z,39.70
2019-03-31T21:15:18.795Z,39.20
2019-03-31T21:17:49.923Z,39.30
2019-03-31T21:20:20.573Z,39.10
2019-03-31T21:22:51.499Z,39.10
2019-03-31T21:25:23.363Z,39.20
2019-03-31T21:27:53.915Z,39.50
2019-03-31T21:30:31.578Z,39.80
2019-03-31T21:33:02.873Z,39.30
2019-03-31T21:35:40.551Z,40.10
2019-03-31T21:38:15.242Z,40.00
2019-03-31T21:40:53.245Z,39.90
2019-03-31T21:43:24.083Z,39.70
2019-03-31T21:45:54.857Z,39.60
2019-03-31T21:48:25.854Z,40.10
2019-03-31T21:50:56.381Z,40.30
2019-03-31T21:53:28.898Z,40.60
2019-03-31T21:55:59.868Z,40.60
2019-03-31T21:58:30.856Z,40.50
2019-03-31T22:01:06.719Z,40.60
2019-03-31T22:03:37.231Z,40.00
2019-03-31T22:06:10.593Z,40.60
2019-03-31T22:08:41.282Z,40.50
2019-03-31T22:11:12.064Z,40.50
2019-03-31T22:13:46.159Z,41.10
2019-03-31T22:16:17.109Z,41.30
2019-03-31T22:18:50.099Z,41.40
2019-03-31T22:21:20.527Z,41.60
2019-03-31T22:24:08.448Z,41.50
2019-03-31T22:26:39.745Z,41.70
2019-03-31T22:29:11.836Z,41.70
2019-03-31T22:31:42.611Z,42.00
2019-03-31T22:34:13.119Z,42.30
2019-03-31T22:36:54.339Z,42.50
2019-03-31T22:39:26.757Z,42.70
2019-03-31T22:41:57.593Z,43.10
2019-03-31T22:44:29.737Z,43.40
2019-03-31T22:47:06.015Z,43.40
2019-03-31T22:49:36.968Z,43.40
2019-03-31T22:52:10.361Z,44.00
2019-03-31T22:54:45.148Z,44.70
2019-03-31T22:57:15.741Z,44.80
2019-03-31T22:59:46.402Z,45.20
2019-03-31T23:02:16.932Z,45.50
2019-03-31T23:04:47.690Z,45.70
2019-03-31T23:07:19.266Z,46.00
2019-03-31T23:09:50.442Z,45.80
2019-03-31T23:12:21.609Z,46.10
2019-03-31T23:15:05.815Z,46.50
2019-03-31T23:17:36.618Z,46.50
2019-03-31T23:20:08.053Z,47.10
2019-03-31T23:22:39.208Z,47.30
2019-03-31T23:25:10.149Z,47.50
2019-03-31T23:27:42.962Z,48.10
2019-03-31T23:30:13.609Z,48.50
2019-03-31T23:32:44.201Z,49.20
2019-03-31T23:35:14.684Z,49.50
2019-03-31T23:37:45.789Z,49.80
2019-03-31T23:40:22.515Z,49.50
2019-03-31T23:42:53.083Z,49.40
2019-03-31T23:45:32.266Z,49.50
2019-03-31T23:48:01.614Z,49.90
2019-03-31T23:50:40.156Z,49.50
2019-03-31T23:53:10.308Z,49.60
2019-03-31T23:55:45.547Z,50.00
2019-03-31T23:58:16.654Z,50.40
